sensor_id;sensor_type;location;lat;lon;timestamp;P1;durP1;ratioP1;P2;durP2;ratioP2
64353;SDS011;50681;53.334;-6.536;2022-09-28T00:01:26;19.83;;;3.72;;
64353;SDS011;50681;53.334;-6.536;2022-09-28T00:03:52;15.27;;;2.97;;
64353;SDS011;50681;53.334;-6.536;2022-09-28T00:06:23;15.43;;;2.92;;
64353;SDS011;50681;53.334;-6.536;2022-09-28T00:08:49;11.77;;;2.42;;
64353;SDS011;50681;53.334;-6.536;2022-09-28T00:11:15;19.70;;;3.13;;
64353;SDS011;50681;53.334;-6.536;2022-09-28T00:13:43;23.23;;;3.08;;
64353;SDS011;50681;53.334;-6.536;2022-09-28T00:16:16;24.85;;;3.38;;
64353;SDS011;50681;53.334;-6.536;2022-09-28T00:18:44;17.67;;;2.97;;
64353;SDS011;50681;53.334;-6.536;2022-09-28T00:21:11;19.13;;;3.63;;
64353;SDS011;50681;53.334;-6.536;2022-09-28T00:23:38;19.73;;;2.75;;
64353;SDS011;50681;53.334;-6.536;2022-09-28T00:26:25;17.88;;;3.08;;
64353;SDS011;50681;53.334;-6.536;2022-09-28T00:28:52;18.85;;;2.67;;
64353;SDS011;50681;53.334;-6.536;2022-09-28T00:31:19;17.48;;;2.47;;
64353;SDS011;50681;53.334;-6.536;2022-09-28T00:33:48;16.00;;;2.80;;
64353;SDS011;50681;53.334;-6.536;2022-09-28T00:36:14;15.20;;;3.15;;
64353;SDS011;50681;53.334;-6.536;2022-09-28T00:38:40;17.47;;;2.70;;
64353;SDS011;50681;53.334;-6.536;2022-09-28T00:41:05;16.60;;;2.40;;
64353;SDS011;50681;53.334;-6.536;2022-09-28T00:43:32;13.70;;;2.40;;
64353;SDS011;50681;53.334;-6.536;2022-09-28T00:45:58;18.30;;;2.90;;
64353;SDS011;50681;53.334;-6.536;2022-09-28T00:48:26;12.50;;;2.70;;
64353;SDS011;50681;53.334;-6.536;2022-09-28T00:50:56;21.73;;;3.17;;
64353;SDS011;50681;53.334;-6.536;2022-09-28T00:56:16;22.90;;;3.08;;
64353;SDS011;50681;53.334;-6.536;2022-09-28T00:58:46;15.75;;;2.65;;
64353;SDS011;50681;53.334;-6.536;2022-09-28T01:01:15;19.77;;;3.08;;
64353;SDS011;50681;53.334;-6.536;2022-09-28T01:03:40;20.93;;;3.30;;
64353;SDS011;50681;53.334;-6.536;2022-09-28T01:06:10;10.38;;;2.70;;
64353;SDS011;50681;53.334;-6.536;2022-09-28T01:08:42;14.68;;;2.75;;
64353;SDS011;50681;53.334;-6.536;2022-09-28T01:11:10;18.75;;;3.30;;
64353;SDS011;50681;53.334;-6.536;2022-09-28T01:13:36;25.70;;;3.22;;
64353;SDS011;50681;53.334;-6.536;2022-09-28T01:21:28;21.92;;;3.28;;
64353;SDS011;50681;53.334;-6.536;2022-09-28T01:24:41;19.23;;;2.53;;
64353;SDS011;50681;53.334;-6.536;2022-09-28T01:27:10;17.15;;;2.45;;
64353;SDS011;50681;53.334;-6.536;2022-09-28T01:34:55;12.98;;;2.30;;
64353;SDS011;50681;53.334;-6.536;2022-09-28T01:37:30;18.98;;;3.28;;
64353;SDS011;50681;53.334;-6.536;2022-09-28T01:40:02;12.95;;;2.20;;
64353;SDS011;50681;53.334;-6.536;2022-09-28T01:42:31;20.85;;;2.90;;
64353;SDS011;50681;53.334;-6.536;2022-09-28T01:48:01;15.57;;;2.45;;
64353;SDS011;50681;53.334;-6.536;2022-09-28T01:50:33;19.50;;;2.17;;
64353;SDS011;50681;53.334;-6.536;2022-09-28T01:53:03;23.58;;;3.00;;
64353;SDS011;50681;53.334;-6.536;2022-09-28T01:55:44;12.25;;;2.40;;
64353;SDS011;50681;53.334;-6.536;2022-09-28T01:58:24;15.63;;;2.67;;
64353;SDS011;50681;53.334;-6.536;2022-09-28T02:00:58;17.98;;;2.42;;
64353;SDS011;50681;53.334;-6.536;2022-09-28T02:03:30;16.52;;;2.55;;
64353;SDS011;50681;53.334;-6.536;2022-09-28T02:06:13;14.75;;;3.03;;
64353;SDS011;50681;53.334;-6.536;2022-09-28T02:08:57;17.80;;;2.35;;
64353;SDS011;50681;53.334;-6.536;2022-09-28T02:11:27;16.90;;;2.72;;
64353;SDS011;50681;53.334;-6.536;2022-09-28T02:14:08;16.70;;;2.33;;
64353;SDS011;50681;53.334;-6.536;2022-09-28T02:16:41;12.38;;;2.78;;
64353;SDS011;50681;53.334;-6.536;2022-09-28T02:19:09;15.75;;;2.25;;
64353;SDS011;50681;53.334;-6.536;2022-09-28T02:21:42;19.15;;;2.65;;
64353;SDS011;50681;53.334;-6.536;2022-09-28T02:24:31;9.13;;;2.50;;
64353;SDS011;50681;53.334;-6.536;2022-09-28T02:27:04;8.55;;;2.00;;
64353;SDS011;50681;53.334;-6.536;2022-09-28T02:29:38;12.47;;;2.80;;
64353;SDS011;50681;53.334;-6.536;2022-09-28T02:32:04;10.63;;;2.23;;
64353;SDS011;50681;53.334;-6.536;2022-09-28T02:34:29;12.07;;;2.20;;
64353;SDS011;50681;53.334;-6.536;2022-09-28T02:36:55;9.85;;;2.15;;
64353;SDS011;50681;53.334;-6.536;2022-09-28T02:39:21;17.87;;;2.40;;
64353;SDS011;50681;53.334;-6.536;2022-09-28T02:47:22;16.90;;;2.30;;
64353;SDS011;50681;53.334;-6.536;2022-09-28T02:58:09;23.27;;;4.35;;
64353;SDS011;50681;53.334;-6.536;2022-09-28T03:03:56;11.40;;;1.98;;
64353;SDS011;50681;53.334;-6.536;2022-09-28T03:06:40;11.75;;;2.45;;
64353;SDS011;50681;53.334;-6.536;2022-09-28T03:09:22;12.73;;;2.58;;
64353;SDS011;50681;53.334;-6.536;2022-09-28T03:11:57;14.13;;;1.70;;
64353;SDS011;50681;53.334;-6.536;2022-09-28T03:14:27;10.57;;;1.65;;
64353;SDS011;50681;53.334;-6.536;2022-09-28T03:19:20;9.52;;;1.75;;
64353;SDS011;50681;53.334;-6.536;2022-09-28T03:21:53;8.90;;;1.23;;
64353;SDS011;50681;53.334;-6.536;2022-09-28T03:24:19;9.73;;;1.38;;
64353;SDS011;50681;53.334;-6.536;2022-09-28T03:26:45;14.40;;;2.23;;
64353;SDS011;50681;53.334;-6.536;2022-09-28T03:29:10;11.20;;;2.07;;
64353;SDS011;50681;53.334;-6.536;2022-09-28T03:31:38;13.97;;;2.07;;
64353;SDS011;50681;53.334;-6.536;2022-09-28T03:34:03;8.63;;;1.48;;
64353;SDS011;50681;53.334;-6.536;2022-09-28T03:36:29;13.40;;;2.47;;
64353;SDS011;50681;53.334;-6.536;2022-09-28T03:38:54;12.37;;;1.90;;
64353;SDS011;50681;53.334;-6.536;2022-09-28T03:41:20;12.90;;;2.00;;
64353;SDS011;50681;53.334;-6.536;2022-09-28T03:43:47;6.20;;;1.23;;
64353;SDS011;50681;53.334;-6.536;2022-09-28T03:46:13;11.13;;;1.70;;
64353;SDS011;50681;53.334;-6.536;2022-09-28T03:48:38;12.17;;;1.50;;
64353;SDS011;50681;53.334;-6.536;2022-09-28T03:51:05;12.85;;;1.58;;
64353;SDS011;50681;53.334;-6.536;2022-09-28T03:53:33;8.75;;;1.40;;
64353;SDS011;50681;53.334;-6.536;2022-09-28T03:58:53;11.45;;;1.23;;
64353;SDS011;50681;53.334;-6.536;2022-09-28T04:01:18;10.05;;;1.35;;
64353;SDS011;50681;53.334;-6.536;2022-09-28T04:03:45;24.33;;;2.07;;
64353;SDS011;50681;53.334;-6.536;2022-09-28T04:06:11;10.95;;;1.80;;
64353;SDS011;50681;53.334;-6.536;2022-09-28T04:08:37;11.15;;;1.85;;
64353;SDS011;50681;53.334;-6.536;2022-09-28T04:11:04;11.40;;;1.70;;
64353;SDS011;50681;53.334;-6.536;2022-09-28T04:13:30;8.10;;;1.65;;
64353;SDS011;50681;53.334;-6.536;2022-09-28T04:15:56;7.97;;;1.60;;
64353;SDS011;50681;53.334;-6.536;2022-09-28T04:18:24;9.70;;;1.80;;
64353;SDS011;50681;53.334;-6.536;2022-09-28T04:23:40;8.25;;;1.92;;
64353;SDS011;50681;53.334;-6.536;2022-09-28T04:26:06;12.60;;;1.73;;
64353;SDS011;50681;53.334;-6.536;2022-09-28T04:28:35;19.05;;;2.20;;
64353;SDS011;50681;53.334;-6.536;2022-09-28T04:34:14;8.27;;;1.35;;
64353;SDS011;50681;53.334;-6.536;2022-09-28T04:36:47;13.55;;;1.75;;
64353;SDS011;50681;53.334;-6.536;2022-09-28T04:39:14;8.38;;;1.52;;
64353;SDS011;50681;53.334;-6.536;2022-09-28T04:41:41;10.18;;;1.98;;
64353;SDS011;50681;53.334;-6.536;2022-09-28T04:44:09;13.43;;;2.08;;
64353;SDS011;50681;53.334;-6.536;2022-09-28T04:46:35;28.08;;;2.47;;
64353;SDS011;50681;53.334;-6.536;2022-09-28T04:49:02;11.57;;;1.80;;
64353;SDS011;50681;53.334;-6.536;2022-09-28T04:51:30;13.90;;;2.33;;
64353;SDS011;50681;53.334;-6.536;2022-09-28T04:53:56;17.10;;;2.30;;
64353;SDS011;50681;53.334;-6.536;2022-09-28T04:56:22;16.17;;;2.00;;
64353;SDS011;50681;53.334;-6.536;2022-09-28T04:58:47;15.40;;;2.33;;
64353;SDS011;50681;53.334;-6.536;2022-09-28T05:01:14;7.47;;;1.70;;
64353;SDS011;50681;53.334;-6.536;2022-09-28T05:03:41;14.88;;;2.40;;
64353;SDS011;50681;53.334;-6.536;2022-09-28T05:06:08;19.23;;;2.20;;
64353;SDS011;50681;53.334;-6.536;2022-09-28T05:08:36;10.48;;;2.10;;
64353;SDS011;50681;53.334;-6.536;2022-09-28T05:11:03;10.37;;;1.43;;
64353;SDS011;50681;53.334;-6.536;2022-09-28T05:13:30;11.55;;;1.63;;
64353;SDS011;50681;53.334;-6.536;2022-09-28T05:18:22;21.48;;;2.40;;
64353;SDS011;50681;53.334;-6.536;2022-09-28T05:20:48;12.60;;;2.03;;
64353;SDS011;50681;53.334;-6.536;2022-09-28T05:23:15;14.30;;;2.28;;
64353;SDS011;50681;53.334;-6.536;2022-09-28T05:25:41;9.40;;;1.63;;
64353;SDS011;50681;53.334;-6.536;2022-09-28T05:28:09;16.25;;;2.15;;
64353;SDS011;50681;53.334;-6.536;2022-09-28T05:30:35;17.67;;;2.17;;
64353;SDS011;50681;53.334;-6.536;2022-09-28T05:33:01;8.27;;;1.88;;
64353;SDS011;50681;53.334;-6.536;2022-09-28T05:35:28;15.88;;;1.85;;
64353;SDS011;50681;53.334;-6.536;2022-09-28T05:37:54;6.45;;;1.27;;
64353;SDS011;50681;53.334;-6.536;2022-09-28T05:40:22;12.68;;;2.33;;
64353;SDS011;50681;53.334;-6.536;2022-09-28T05:42:48;16.48;;;2.15;;
64353;SDS011;50681;53.334;-6.536;2022-09-28T05:45:13;11.23;;;2.00;;
64353;SDS011;50681;53.334;-6.536;2022-09-28T05:47:39;14.80;;;1.90;;
64353;SDS011;50681;53.334;-6.536;2022-09-28T05:50:09;9.68;;;1.85;;
64353;SDS011;50681;53.334;-6.536;2022-09-28T05:52:40;9.25;;;2.15;;
64353;SDS011;50681;53.334;-6.536;2022-09-28T05:55:13;8.43;;;1.60;;
64353;SDS011;50681;53.334;-6.536;2022-09-28T05:57:38;9.30;;;1.50;;
64353;SDS011;50681;53.334;-6.536;2022-09-28T06:00:04;8.73;;;1.50;;
64353;SDS011;50681;53.334;-6.536;2022-09-28T06:02:33;10.15;;;1.55;;
64353;SDS011;50681;53.334;-6.536;2022-09-28T06:04:59;12.68;;;2.25;;
64353;SDS011;50681;53.334;-6.536;2022-09-28T06:07:24;11.90;;;1.73;;
64353;SDS011;50681;53.334;-6.536;2022-09-28T06:09:49;10.77;;;1.70;;
64353;SDS011;50681;53.334;-6.536;2022-09-28T06:15:19;4.20;;;1.35;;
64353;SDS011;50681;53.334;-6.536;2022-09-28T06:17:54;9.98;;;1.50;;
64353;SDS011;50681;53.334;-6.536;2022-09-28T06:20:24;13.20;;;1.42;;
64353;SDS011;50681;53.334;-6.536;2022-09-28T06:22:58;17.73;;;1.88;;
64353;SDS011;50681;53.334;-6.536;2022-09-28T06:25:24;10.20;;;1.70;;
64353;SDS011;50681;53.334;-6.536;2022-09-28T06:28:10;11.18;;;1.70;;
64353;SDS011;50681;53.334;-6.536;2022-09-28T06:30:37;12.57;;;1.45;;
64353;SDS011;50681;53.334;-6.536;2022-09-28T06:33:04;15.23;;;1.98;;
64353;SDS011;50681;53.334;-6.536;2022-09-28T06:35:31;16.88;;;3.13;;
64353;SDS011;50681;53.334;-6.536;2022-09-28T06:37:57;9.82;;;1.48;;
64353;SDS011;50681;53.334;-6.536;2022-09-28T06:40:24;13.02;;;1.70;;
64353;SDS011;50681;53.334;-6.536;2022-09-28T06:45:41;11.45;;;1.50;;
64353;SDS011;50681;53.334;-6.536;2022-09-28T06:48:08;12.68;;;1.52;;
64353;SDS011;50681;53.334;-6.536;2022-09-28T06:53:13;15.57;;;1.80;;
64353;SDS011;50681;53.334;-6.536;2022-09-28T06:55:39;15.60;;;2.10;;
64353;SDS011;50681;53.334;-6.536;2022-09-28T06:58:08;10.15;;;2.28;;
64353;SDS011;50681;53.334;-6.536;2022-09-28T07:00:36;6.30;;;1.45;;
64353;SDS011;50681;53.334;-6.536;2022-09-28T07:03:04;7.25;;;1.55;;
64353;SDS011;50681;53.334;-6.536;2022-09-28T07:05:31;10.48;;;1.65;;
64353;SDS011;50681;53.334;-6.536;2022-09-28T07:10:39;9.43;;;1.40;;
64353;SDS011;50681;53.334;-6.536;2022-09-28T07:13:05;12.55;;;1.40;;
64353;SDS011;50681;53.334;-6.536;2022-09-28T07:15:32;15.03;;;1.47;;
64353;SDS011;50681;53.334;-6.536;2022-09-28T07:18:01;8.32;;;1.17;;
64353;SDS011;50681;53.334;-6.536;2022-09-28T07:20:27;4.45;;;1.42;;
64353;SDS011;50681;53.334;-6.536;2022-09-28T07:22:54;11.35;;;1.70;;
64353;SDS011;50681;53.334;-6.536;2022-09-28T07:27:46;12.15;;;1.55;;
64353;SDS011;50681;53.334;-6.536;2022-09-28T07:30:12;6.65;;;1.52;;
64353;SDS011;50681;53.334;-6.536;2022-09-28T07:32:38;8.75;;;1.35;;
64353;SDS011;50681;53.334;-6.536;2022-09-28T07:35:04;11.48;;;1.77;;
64353;SDS011;50681;53.334;-6.536;2022-09-28T07:37:33;8.93;;;1.40;;
64353;SDS011;50681;53.334;-6.536;2022-09-28T07:40:00;5.93;;;1.27;;
64353;SDS011;50681;53.334;-6.536;2022-09-28T07:42:55;13.00;;;1.65;;
64353;SDS011;50681;53.334;-6.536;2022-09-28T07:45:20;12.07;;;0.87;;
64353;SDS011;50681;53.334;-6.536;2022-09-28T07:47:49;8.00;;;1.20;;
64353;SDS011;50681;53.334;-6.536;2022-09-28T07:50:19;8.07;;;1.40;;
64353;SDS011;50681;53.334;-6.536;2022-09-28T07:52:45;9.90;;;1.65;;
64353;SDS011;50681;53.334;-6.536;2022-09-28T07:55:10;9.37;;;1.47;;
64353;SDS011;50681;53.334;-6.536;2022-09-28T07:57:36;7.23;;;1.13;;
64353;SDS011;50681;53.334;-6.536;2022-09-28T08:00:08;5.90;;;1.37;;
64353;SDS011;50681;53.334;-6.536;2022-09-28T08:02:35;9.10;;;2.88;;
64353;SDS011;50681;53.334;-6.536;2022-09-28T08:05:01;8.82;;;1.73;;
64353;SDS011;50681;53.334;-6.536;2022-09-28T08:07:27;8.23;;;1.83;;
64353;SDS011;50681;53.334;-6.536;2022-09-28T08:09:52;18.90;;;2.40;;
64353;SDS011;50681;53.334;-6.536;2022-09-28T08:12:18;8.67;;;1.63;;
64353;SDS011;50681;53.334;-6.536;2022-09-28T08:14:46;7.13;;;1.30;;
64353;SDS011;50681;53.334;-6.536;2022-09-28T08:17:13;12.77;;;1.38;;
64353;SDS011;50681;53.334;-6.536;2022-09-28T08:19:39;7.65;;;1.73;;
64353;SDS011;50681;53.334;-6.536;2022-09-28T08:22:24;17.58;;;1.48;;
64353;SDS011;50681;53.334;-6.536;2022-09-28T08:24:49;10.73;;;1.63;;
64353;SDS011;50681;53.334;-6.536;2022-09-28T08:27:15;13.17;;;1.30;;
64353;SDS011;50681;53.334;-6.536;2022-09-28T08:29:41;4.57;;;1.10;;
64353;SDS011;50681;53.334;-6.536;2022-09-28T08:32:07;11.60;;;1.40;;
64353;SDS011;50681;53.334;-6.536;2022-09-28T08:37:05;5.38;;;1.33;;
64353;SDS011;50681;53.334;-6.536;2022-09-28T08:39:33;11.75;;;0.82;;
64353;SDS011;50681;53.334;-6.536;2022-09-28T08:42:05;4.20;;;1.15;;
64353;SDS011;50681;53.334;-6.536;2022-09-28T08:44:51;8.57;;;1.23;;
64353;SDS011;50681;53.334;-6.536;2022-09-28T08:47:26;8.57;;;1.08;;
64353;SDS011;50681;53.334;-6.536;2022-09-28T08:50:15;5.60;;;0.88;;
64353;SDS011;50681;53.334;-6.536;2022-09-28T08:52:46;8.05;;;1.15;;
64353;SDS011;50681;53.334;-6.536;2022-09-28T08:55:27;7.00;;;2.05;;
64353;SDS011;50681;53.334;-6.536;2022-09-28T08:58:03;7.75;;;1.48;;
64353;SDS011;50681;53.334;-6.536;2022-09-28T09:00:46;7.00;;;1.55;;
64353;SDS011;50681;53.334;-6.536;2022-09-28T09:03:46;7.97;;;1.10;;
64353;SDS011;50681;53.334;-6.536;2022-09-28T09:22:16;5.60;;;1.23;;
64353;SDS011;50681;53.334;-6.536;2022-09-28T09:30:19;4.88;;;0.95;;
64353;SDS011;50681;53.334;-6.536;2022-09-28T09:41:11;2.78;;;0.60;;
64353;SDS011;50681;53.334;-6.536;2022-09-28T09:46:30;7.28;;;1.48;;
64353;SDS011;50681;53.334;-6.536;2022-09-28T09:49:24;6.47;;;0.90;;
64353;SDS011;50681;53.334;-6.536;2022-09-28T09:52:00;7.93;;;1.17;;
64353;SDS011;50681;53.334;-6.536;2022-09-28T09:57:02;10.13;;;1.20;;
64353;SDS011;50681;53.334;-6.536;2022-09-28T09:59:35;3.08;;;0.60;;
64353;SDS011;50681;53.334;-6.536;2022-09-28T10:02:22;7.55;;;1.17;;
64353;SDS011;50681;53.334;-6.536;2022-09-28T10:04:49;5.25;;;1.08;;
64353;SDS011;50681;53.334;-6.536;2022-09-28T10:08:02;4.70;;;0.60;;
64353;SDS011;50681;53.334;-6.536;2022-09-28T10:10:15;4.18;;;0.55;;
64353;SDS011;50681;53.334;-6.536;2022-09-28T10:12:51;7.47;;;1.23;;
64353;SDS011;50681;53.334;-6.536;2022-09-28T10:15:24;1.25;;;0.57;;
64353;SDS011;50681;53.334;-6.536;2022-09-28T10:17:52;2.75;;;0.90;;
64353;SDS011;50681;53.334;-6.536;2022-09-28T10:20:19;5.32;;;1.00;;
64353;SDS011;50681;53.334;-6.536;2022-09-28T10:22:45;1.60;;;0.47;;
64353;SDS011;50681;53.334;-6.536;2022-09-28T10:25:11;6.97;;;1.45;;
64353;SDS011;50681;53.334;-6.536;2022-09-28T10:27:40;9.75;;;1.13;;
64353;SDS011;50681;53.334;-6.536;2022-09-28T10:32:48;3.42;;;0.93;;
64353;SDS011;50681;53.334;-6.536;2022-09-28T10:35:20;5.65;;;1.38;;
64353;SDS011;50681;53.334;-6.536;2022-09-28T10:40:41;8.68;;;1.05;;
64353;SDS011;50681;53.334;-6.536;2022-09-28T10:43:21;10.15;;;0.70;;
64353;SDS011;50681;53.334;-6.536;2022-09-28T10:51:19;5.18;;;1.38;;
64353;SDS011;50681;53.334;-6.536;2022-09-28T10:54:09;11.80;;;1.40;;
64353;SDS011;50681;53.334;-6.536;2022-09-28T10:56:38;5.13;;;0.80;;
64353;SDS011;50681;53.334;-6.536;2022-09-28T11:04:49;10.20;;;1.33;;
64353;SDS011;50681;53.334;-6.536;2022-09-28T11:07:20;11.02;;;2.05;;
64353;SDS011;50681;53.334;-6.536;2022-09-28T11:09:49;4.20;;;1.25;;
64353;SDS011;50681;53.334;-6.536;2022-09-28T11:12:20;9.70;;;1.30;;
64353;SDS011;50681;53.334;-6.536;2022-09-28T11:14:48;2.33;;;0.82;;
64353;SDS011;50681;53.334;-6.536;2022-09-28T11:17:31;7.35;;;1.80;;
64353;SDS011;50681;53.334;-6.536;2022-09-28T11:22:48;11.07;;;1.63;;
64353;SDS011;50681;53.334;-6.536;2022-09-28T11:25:18;4.38;;;1.40;;
64353;SDS011;50681;53.334;-6.536;2022-09-28T11:30:23;6.15;;;1.25;;
64353;SDS011;50681;53.334;-6.536;2022-09-28T11:33:02;9.00;;;1.38;;
64353;SDS011;50681;53.334;-6.536;2022-09-28T11:35:37;5.78;;;0.63;;
64353;SDS011;50681;53.334;-6.536;2022-09-28T11:43:33;5.50;;;1.37;;
64353;SDS011;50681;53.334;-6.536;2022-09-28T11:46:28;4.78;;;1.48;;
64353;SDS011;50681;53.334;-6.536;2022-09-28T11:49:18;5.13;;;1.20;;
64353;SDS011;50681;53.334;-6.536;2022-09-28T11:51:51;4.03;;;1.17;;
64353;SDS011;50681;53.334;-6.536;2022-09-28T11:56:58;4.57;;;0.95;;
64353;SDS011;50681;53.334;-6.536;2022-09-28T11:59:29;4.30;;;1.35;;
64353;SDS011;50681;53.334;-6.536;2022-09-28T12:02:13;3.75;;;0.90;;
64353;SDS011;50681;53.334;-6.536;2022-09-28T12:12:32;9.98;;;1.20;;
64353;SDS011;50681;53.334;-6.536;2022-09-28T12:15:13;4.25;;;0.93;;
64353;SDS011;50681;53.334;-6.536;2022-09-28T12:17:44;2.00;;;0.77;;
64353;SDS011;50681;53.334;-6.536;2022-09-28T12:25:54;6.85;;;1.38;;
64353;SDS011;50681;53.334;-6.536;2022-09-28T12:28:33;3.88;;;1.13;;
64353;SDS011;50681;53.334;-6.536;2022-09-28T12:31:08;3.78;;;1.25;;
64353;SDS011;50681;53.334;-6.536;2022-09-28T12:33:38;5.53;;;1.80;;
64353;SDS011;50681;53.334;-6.536;2022-09-28T12:36:14;5.10;;;1.30;;
64353;SDS011;50681;53.334;-6.536;2022-09-28T12:44:45;4.78;;;1.25;;
64353;SDS011;50681;53.334;-6.536;2022-09-28T12:50:28;5.70;;;2.00;;
64353;SDS011;50681;53.334;-6.536;2022-09-28T12:53:24;4.28;;;1.40;;
64353;SDS011;50681;53.334;-6.536;2022-09-28T12:56:10;8.07;;;1.83;;
64353;SDS011;50681;53.334;-6.536;2022-09-28T12:58:56;4.80;;;1.80;;
64353;SDS011;50681;53.334;-6.536;2022-09-28T13:07:01;2.05;;;0.85;;
64353;SDS011;50681;53.334;-6.536;2022-09-28T13:09:33;0.75;;;0.30;;
64353;SDS011;50681;53.334;-6.536;2022-09-28T13:12:25;1.80;;;0.55;;
64353;SDS011;50681;53.334;-6.536;2022-09-28T13:23:20;2.17;;;0.60;;
64353;SDS011;50681;53.334;-6.536;2022-09-28T13:25:56;10.10;;;0.90;;
64353;SDS011;50681;53.334;-6.536;2022-09-28T13:28:25;1.08;;;0.88;;
64353;SDS011;50681;53.334;-6.536;2022-09-28T13:30:55;2.30;;;1.20;;
64353;SDS011;50681;53.334;-6.536;2022-09-28T13:33:38;4.40;;;1.58;;
64353;SDS011;50681;53.334;-6.536;2022-09-28T13:38:59;2.85;;;1.10;;
64353;SDS011;50681;53.334;-6.536;2022-09-28T13:41:29;2.80;;;1.02;;
64353;SDS011;50681;53.334;-6.536;2022-09-28T13:49:23;3.97;;;1.20;;
64353;SDS011;50681;53.334;-6.536;2022-09-28T13:52:12;5.38;;;1.50;;
64353;SDS011;50681;53.334;-6.536;2022-09-28T13:55:12;2.80;;;1.35;;
64353;SDS011;50681;53.334;-6.536;2022-09-28T14:11:41;3.70;;;1.40;;
64353;SDS011;50681;53.334;-6.536;2022-09-28T14:16:43;0.77;;;0.47;;
64353;SDS011;50681;53.334;-6.536;2022-09-28T14:32:32;2.38;;;1.02;;
64353;SDS011;50681;53.334;-6.536;2022-09-28T14:35:05;2.55;;;1.27;;
64353;SDS011;50681;53.334;-6.536;2022-09-28T14:37:40;4.90;;;1.40;;
64353;SDS011;50681;53.334;-6.536;2022-09-28T14:40:32;3.85;;;1.58;;
64353;SDS011;50681;53.334;-6.536;2022-09-28T14:53:55;4.30;;;1.30;;
64353;SDS011;50681;53.334;-6.536;2022-09-28T14:56:30;3.90;;;1.52;;
64353;SDS011;50681;53.334;-6.536;2022-09-28T14:59:30;4.55;;;1.02;;
64353;SDS011;50681;53.334;-6.536;2022-09-28T15:07:48;5.13;;;1.65;;
64353;SDS011;50681;53.334;-6.536;2022-09-28T15:12:55;3.47;;;1.25;;
64353;SDS011;50681;53.334;-6.536;2022-09-28T15:15:32;2.70;;;1.00;;
64353;SDS011;50681;53.334;-6.536;2022-09-28T15:20:45;2.78;;;1.15;;
64353;SDS011;50681;53.334;-6.536;2022-09-28T15:28:55;1.70;;;0.80;;
64353;SDS011;50681;53.334;-6.536;2022-09-28T15:34:10;4.22;;;1.10;;
64353;SDS011;50681;53.334;-6.536;2022-09-28T15:37:08;2.17;;;0.90;;
64353;SDS011;50681;53.334;-6.536;2022-09-28T15:39:35;2.63;;;0.80;;
64353;SDS011;50681;53.334;-6.536;2022-09-28T15:42:01;2.17;;;0.82;;
64353;SDS011;50681;53.334;-6.536;2022-09-28T15:47:29;4.70;;;1.10;;
64353;SDS011;50681;53.334;-6.536;2022-09-28T15:49:53;4.07;;;0.73;;
64353;SDS011;50681;53.334;-6.536;2022-09-28T15:55:32;3.05;;;1.15;;
64353;SDS011;50681;53.334;-6.536;2022-09-28T15:58:05;5.70;;;0.98;;
64353;SDS011;50681;53.334;-6.536;2022-09-28T16:00:47;4.60;;;1.40;;
64353;SDS011;50681;53.334;-6.536;2022-09-28T16:11:01;2.47;;;0.88;;
64353;SDS011;50681;53.334;-6.536;2022-09-28T16:16:52;6.75;;;2.85;;
64353;SDS011;50681;53.334;-6.536;2022-09-28T16:19:34;1.10;;;0.73;;
64353;SDS011;50681;53.334;-6.536;2022-09-28T16:22:04;3.45;;;1.80;;
64353;SDS011;50681;53.334;-6.536;2022-09-28T16:24:34;4.47;;;1.42;;
64353;SDS011;50681;53.334;-6.536;2022-09-28T16:27:38;5.82;;;1.60;;
64353;SDS011;50681;53.334;-6.536;2022-09-28T16:30:14;2.00;;;0.70;;
64353;SDS011;50681;53.334;-6.536;2022-09-28T16:38:23;3.50;;;1.30;;
64353;SDS011;50681;53.334;-6.536;2022-09-28T16:40:43;4.03;;;1.40;;
64353;SDS011;50681;53.334;-6.536;2022-09-28T16:43:28;10.43;;;1.83;;
64353;SDS011;50681;53.334;-6.536;2022-09-28T16:45:58;2.75;;;1.02;;
64353;SDS011;50681;53.334;-6.536;2022-09-28T16:48:26;4.15;;;1.40;;
64353;SDS011;50681;53.334;-6.536;2022-09-28T16:53:23;9.20;;;2.30;;
64353;SDS011;50681;53.334;-6.536;2022-09-28T16:56:07;4.22;;;1.80;;
64353;SDS011;50681;53.334;-6.536;2022-09-28T16:58:33;11.20;;;5.63;;
64353;SDS011;50681;53.334;-6.536;2022-09-28T17:01:03;11.10;;;5.00;;
64353;SDS011;50681;53.334;-6.536;2022-09-28T17:03:29;11.65;;;3.63;;
64353;SDS011;50681;53.334;-6.536;2022-09-28T17:05:55;7.28;;;2.88;;
64353;SDS011;50681;53.334;-6.536;2022-09-28T17:08:21;7.25;;;2.78;;
64353;SDS011;50681;53.334;-6.536;2022-09-28T17:13:22;8.95;;;3.38;;
64353;SDS011;50681;53.334;-6.536;2022-09-28T17:16:10;12.88;;;3.67;;
64353;SDS011;50681;53.334;-6.536;2022-09-28T17:18:37;9.23;;;3.28;;
64353;SDS011;50681;53.334;-6.536;2022-09-28T17:21:05;5.80;;;2.33;;
64353;SDS011;50681;53.334;-6.536;2022-09-28T17:23:33;6.70;;;2.10;;
64353;SDS011;50681;53.334;-6.536;2022-09-28T17:25:59;4.33;;;2.50;;
64353;SDS011;50681;53.334;-6.536;2022-09-28T17:28:27;10.20;;;2.72;;
64353;SDS011;50681;53.334;-6.536;2022-09-28T17:30:56;9.55;;;3.92;;
64353;SDS011;50681;53.334;-6.536;2022-09-28T17:35:47;11.07;;;3.60;;
64353;SDS011;50681;53.334;-6.536;2022-09-28T17:38:15;10.23;;;3.47;;
64353;SDS011;50681;53.334;-6.536;2022-09-28T17:40:41;6.60;;;3.80;;
64353;SDS011;50681;53.334;-6.536;2022-09-28T17:43:12;11.25;;;3.53;;
64353;SDS011;50681;53.334;-6.536;2022-09-28T17:45:37;9.00;;;2.47;;
64353;SDS011;50681;53.334;-6.536;2022-09-28T17:48:05;7.40;;;3.20;;
64353;SDS011;50681;53.334;-6.536;2022-09-28T17:50:34;7.70;;;2.10;;
64353;SDS011;50681;53.334;-6.536;2022-09-28T17:52:59;5.55;;;1.45;;
64353;SDS011;50681;53.334;-6.536;2022-09-28T17:55:30;11.13;;;2.15;;
64353;SDS011;50681;53.334;-6.536;2022-09-28T17:57:57;7.50;;;2.30;;
64353;SDS011;50681;53.334;-6.536;2022-09-28T18:00:25;5.50;;;2.40;;
64353;SDS011;50681;53.334;-6.536;2022-09-28T18:02:55;12.10;;;2.67;;
64353;SDS011;50681;53.334;-6.536;2022-09-28T18:05:22;8.45;;;3.17;;
64353;SDS011;50681;53.334;-6.536;2022-09-28T18:07:49;13.50;;;3.45;;
64353;SDS011;50681;53.334;-6.536;2022-09-28T18:10:18;11.65;;;3.90;;
64353;SDS011;50681;53.334;-6.536;2022-09-28T18:12:47;9.02;;;3.50;;
64353;SDS011;50681;53.334;-6.536;2022-09-28T18:15:19;11.82;;;3.70;;
64353;SDS011;50681;53.334;-6.536;2022-09-28T18:17:44;13.07;;;4.93;;
64353;SDS011;50681;53.334;-6.536;2022-09-28T18:20:11;10.40;;;5.57;;
64353;SDS011;50681;53.334;-6.536;2022-09-28T18:22:37;15.32;;;7.65;;
64353;SDS011;50681;53.334;-6.536;2022-09-28T18:25:03;17.15;;;8.10;;
64353;SDS011;50681;53.334;-6.536;2022-09-28T18:27:30;21.73;;;8.50;;
64353;SDS011;50681;53.334;-6.536;2022-09-28T18:29:57;16.05;;;7.30;;
64353;SDS011;50681;53.334;-6.536;2022-09-28T18:32:22;16.20;;;7.90;;
64353;SDS011;50681;53.334;-6.536;2022-09-28T18:34:48;17.92;;;7.35;;
64353;SDS011;50681;53.334;-6.536;2022-09-28T18:37:13;17.63;;;6.10;;
64353;SDS011;50681;53.334;-6.536;2022-09-28T18:39:39;12.27;;;6.18;;
64353;SDS011;50681;53.334;-6.536;2022-09-28T18:42:05;13.73;;;5.55;;
64353;SDS011;50681;53.334;-6.536;2022-09-28T18:44:30;12.97;;;6.07;;
64353;SDS011;50681;53.334;-6.536;2022-09-28T18:46:56;14.93;;;6.22;;
64353;SDS011;50681;53.334;-6.536;2022-09-28T18:49:22;12.73;;;7.00;;
64353;SDS011;50681;53.334;-6.536;2022-09-28T18:51:48;24.65;;;10.45;;
64353;SDS011;50681;53.334;-6.536;2022-09-28T18:54:13;23.10;;;10.27;;
64353;SDS011;50681;53.334;-6.536;2022-09-28T18:56:40;17.58;;;7.40;;
64353;SDS011;50681;53.334;-6.536;2022-09-28T18:59:06;21.05;;;8.50;;
64353;SDS011;50681;53.334;-6.536;2022-09-28T19:01:34;33.85;;;13.73;;
64353;SDS011;50681;53.334;-6.536;2022-09-28T19:04:06;31.38;;;17.60;;
64353;SDS011;50681;53.334;-6.536;2022-09-28T19:06:36;22.08;;;11.43;;
64353;SDS011;50681;53.334;-6.536;2022-09-28T19:09:05;19.63;;;9.95;;
64353;SDS011;50681;53.334;-6.536;2022-09-28T19:13:57;17.67;;;9.43;;
64353;SDS011;50681;53.334;-6.536;2022-09-28T19:16:24;24.85;;;13.32;;